createdAt,value
2023-03-11T00:01:43.159Z,11.13
2023-03-11T00:04:15.408Z,10.60
2023-03-11T00:06:45.512Z,9.90
2023-03-11T00:09:21.625Z,11.25
2023-03-11T00:11:51.123Z,9.57
2023-03-11T00:14:19.264Z,8.15
2023-03-11T00:16:49.717Z,11.18
2023-03-11T00:19:17.982Z,12.23
2023-03-11T00:21:49.197Z,8.35
2023-03-11T00:24:17.570Z,9.40
2023-03-11T00:26:45.653Z,8.18
2023-03-11T00:29:19.244Z,9.23
2023-03-11T00:31:50.093Z,9.85
2023-03-11T00:34:20.348Z,10.15
2023-03-11T00:36:48.705Z,8.10
2023-03-11T00:39:16.704Z,5.93
2023-03-11T00:41:45.400Z,8.75
2023-03-11T00:44:19.126Z,8.52
2023-03-11T00:46:47.228Z,8.38
2023-03-11T00:49:15.735Z,9.63
2023-03-11T00:51:44.859Z,8.60
2023-03-11T00:54:12.873Z,12.50
2023-03-11T00:56:41.866Z,7.78
2023-03-11T00:59:10.432Z,8.65
2023-03-11T01:01:43.052Z,8.57
2023-03-11T01:04:11.344Z,6.25
2023-03-11T01:06:45.491Z,9.02
2023-03-11T01:09:14.041Z,9.07
2023-03-11T01:11:41.941Z,16.25
2023-03-11T01:14:12.529Z,12.20
2023-03-11T01:16:40.241Z,10.55
2023-03-11T01:19:09.043Z,15.35
2023-03-11T01:21:39.219Z,10.77
2023-03-11T01:24:11.299Z,10.80
2023-03-11T01:26:39.074Z,14.52
2023-03-11T01:29:06.556Z,8.23
2023-03-11T01:31:33.958Z,10.80
2023-03-11T01:34:01.471Z,9.50
2023-03-11T01:36:30.394Z,10.05
2023-03-11T01:38:58.208Z,17.17
2023-03-11T01:41:28.519Z,9.90
2023-03-11T01:43:59.010Z,7.88
2023-03-11T01:46:36.903Z,6.32
2023-03-11T01:49:06.840Z,13.38
2023-03-11T01:51:41.530Z,11.98
2023-03-11T01:54:12.638Z,10.90
2023-03-11T01:56:42.188Z,9.77
2023-03-11T01:59:10.359Z,11.55
2023-03-11T02:01:42.749Z,10.05
2023-03-11T02:04:10.788Z,10.00
2023-03-11T02:06:42.685Z,9.48
2023-03-11T02:09:10.463Z,9.55
2023-03-11T02:11:38.313Z,10.60
2023-03-11T02:16:33.336Z,12.85
2023-03-11T02:21:30.832Z,6.45
2023-03-11T02:24:06.780Z,10.15
2023-03-11T02:26:38.362Z,14.73
2023-03-11T02:29:08.622Z,10.95
2023-03-11T02:31:37.847Z,7.82
2023-03-11T02:34:07.737Z,6.32
2023-03-11T02:36:43.229Z,13.85
2023-03-11T02:39:16.253Z,13.15
2023-03-11T02:41:46.784Z,6.57
2023-03-11T02:44:16.553Z,11.70
2023-03-11T02:46:47.746Z,9.15
2023-03-11T02:49:22.180Z,18.80
2023-03-11T02:51:52.376Z,8.35
2023-03-11T02:54:19.924Z,15.95
2023-03-11T02:56:54.380Z,10.32
2023-03-11T02:59:23.228Z,12.45
2023-03-11T03:01:50.853Z,12.45
2023-03-11T03:04:22.123Z,8.40
2023-03-11T03:06:52.534Z,7.10
2023-03-11T03:09:20.118Z,11.20
2023-03-11T03:11:50.183Z,14.02
2023-03-11T03:14:19.618Z,20.13
2023-03-11T03:16:48.896Z,10.27
2023-03-11T03:19:19.109Z,12.82
2023-03-11T03:21:46.941Z,16.35
2023-03-11T03:24:14.688Z,31.83
2023-03-11T03:26:42.511Z,15.80
2023-03-11T03:29:10.087Z,9.40
2023-03-11T03:31:48.011Z,12.82
2023-03-11T03:34:16.430Z,13.43
2023-03-11T03:36:43.842Z,12.52
2023-03-11T03:39:11.942Z,19.70
2023-03-11T03:41:43.642Z,11.68
2023-03-11T03:44:11.867Z,9.43
2023-03-11T03:46:39.729Z,15.65
2023-03-11T03:49:10.949Z,14.20
2023-03-11T03:51:39.069Z,13.88
2023-03-11T03:54:22.784Z,16.05
2023-03-11T03:56:51.054Z,24.17
2023-03-11T04:01:55.701Z,10.38
2023-03-11T04:04:26.148Z,22.70
2023-03-11T04:06:56.622Z,18.40
2023-03-11T04:09:24.787Z,8.38
2023-03-11T04:16:54.239Z,18.55
2023-03-11T04:19:21.954Z,19.50
2023-03-11T04:21:51.801Z,12.55
2023-03-11T04:24:22.967Z,11.70
2023-03-11T04:26:50.939Z,24.58
2023-03-11T04:29:21.360Z,9.98
2023-03-11T04:31:51.747Z,22.20
2023-03-11T04:36:46.751Z,9.52
2023-03-11T04:39:18.238Z,13.20
2023-03-11T04:41:47.051Z,8.55
2023-03-11T04:44:21.823Z,17.58
2023-03-11T04:46:50.853Z,16.85
2023-03-11T04:49:19.539Z,11.98
2023-03-11T04:51:47.800Z,15.70
2023-03-11T04:54:22.259Z,11.25
2023-03-11T04:56:50.482Z,25.42
2023-03-11T04:59:18.058Z,12.13
2023-03-11T05:01:47.080Z,12.80
2023-03-11T05:04:14.696Z,17.52
2023-03-11T05:06:42.709Z,15.68
2023-03-11T05:09:10.204Z,11.73
2023-03-11T05:11:42.927Z,14.30
2023-03-11T05:14:11.860Z,12.10
2023-03-11T05:16:42.370Z,18.20
2023-03-11T05:19:24.968Z,11.77
2023-03-11T05:21:52.861Z,15.27
2023-03-11T05:24:23.098Z,19.38
2023-03-11T05:26:52.055Z,13.75
2023-03-11T05:29:19.717Z,17.90
2023-03-11T05:31:49.367Z,19.05
2023-03-11T05:34:19.963Z,7.90
2023-03-11T05:36:47.700Z,9.75
2023-03-11T05:39:15.569Z,13.52
2023-03-11T05:41:43.408Z,12.43
2023-03-11T05:44:12.385Z,16.77
2023-03-11T05:46:40.307Z,20.05
2023-03-11T05:49:11.251Z,13.70
2023-03-11T05:51:39.095Z,17.75
2023-03-11T05:54:11.429Z,12.55
2023-03-11T05:56:40.669Z,18.85
2023-03-11T06:01:39.616Z,11.63
2023-03-11T06:04:07.895Z,15.45
2023-03-11T06:06:36.060Z,15.10
2023-03-11T06:09:08.641Z,23.00
2023-03-11T06:11:36.288Z,8.18
2023-03-11T06:14:03.813Z,14.90
2023-03-11T06:16:31.852Z,16.65
2023-03-11T06:19:03.725Z,22.85
2023-03-11T06:21:39.868Z,6.97
2023-03-11T06:24:08.164Z,22.55
2023-03-11T06:29:03.132Z,14.40
2023-03-11T06:34:08.148Z,13.13
2023-03-11T06:36:38.268Z,9.13
2023-03-11T06:39:10.990Z,17.80
2023-03-11T06:41:40.423Z,11.48
2023-03-11T06:44:09.989Z,16.02
2023-03-11T06:46:41.843Z,16.35
2023-03-11T06:49:10.790Z,14.68
2023-03-11T06:51:41.362Z,13.00
2023-03-11T06:54:12.659Z,14.63
2023-03-11T06:56:40.190Z,6.25
2023-03-11T06:59:09.438Z,11.85
2023-03-11T07:01:37.025Z,12.52
2023-03-11T07:04:07.043Z,7.35
2023-03-11T07:06:42.395Z,11.45
2023-03-11T07:09:15.605Z,9.65
2023-03-11T07:11:45.426Z,8.57
2023-03-11T07:14:16.980Z,10.82
2023-03-11T07:16:48.370Z,14.70
2023-03-11T07:19:26.909Z,6.97
2023-03-11T07:21:55.752Z,7.97
2023-03-11T07:24:24.717Z,7.53
2023-03-11T07:26:52.296Z,14.95
2023-03-11T07:29:23.146Z,11.77
2023-03-11T07:31:50.514Z,9.05
2023-03-11T07:34:20.277Z,16.70
2023-03-11T07:36:50.431Z,11.73
2023-03-11T07:39:20.090Z,15.15
2023-03-11T07:41:50.482Z,9.93
2023-03-11T07:46:45.974Z,17.67
2023-03-11T07:49:13.979Z,14.40
2023-03-11T07:51:43.652Z,14.63
2023-03-11T07:54:16.215Z,10.55
2023-03-11T07:56:46.558Z,12.13
2023-03-11T07:59:16.345Z,12.82
2023-03-11T08:01:47.083Z,13.27
2023-03-11T08:04:16.906Z,17.02
2023-03-11T08:06:45.539Z,12.10
2023-03-11T08:09:13.918Z,15.57
2023-03-11T08:11:41.613Z,12.73
2023-03-11T08:14:10.483Z,13.90
2023-03-11T08:16:40.075Z,8.57
2023-03-11T08:19:07.636Z,12.30
2023-03-11T08:21:35.068Z,10.77
2023-03-11T08:24:06.762Z,6.30
2023-03-11T08:26:36.417Z,10.00
2023-03-11T08:29:03.993Z,17.60
2023-03-11T08:31:33.515Z,12.35
2023-03-11T08:34:04.040Z,7.40
2023-03-11T08:36:31.924Z,13.48
2023-03-11T08:41:26.822Z,8.63
2023-03-11T08:43:54.370Z,5.00
2023-03-11T08:46:25.074Z,12.98
2023-03-11T08:48:54.502Z,4.90
2023-03-11T08:51:22.062Z,5.95
2023-03-11T08:53:49.949Z,7.43
2023-03-11T08:56:17.481Z,12.10
2023-03-11T08:58:45.008Z,12.98
2023-03-11T09:01:13.266Z,5.35
2023-03-11T09:03:41.062Z,6.88
2023-03-11T09:06:14.247Z,11.43
2023-03-11T09:08:41.924Z,10.18
2023-03-11T09:11:09.448Z,3.85
2023-03-11T09:13:37.024Z,7.28
2023-03-11T09:16:05.962Z,4.60
2023-03-11T09:18:36.144Z,7.13
2023-03-11T09:21:05.728Z,5.78
2023-03-11T09:23:35.358Z,4.43
2023-03-11T09:26:05.949Z,4.10
2023-03-11T09:28:33.674Z,7.38
2023-03-11T09:31:01.215Z,10.23
2023-03-11T09:33:32.845Z,8.65
2023-03-11T09:36:00.309Z,12.20
2023-03-11T09:38:29.767Z,11.13
2023-03-11T09:41:01.428Z,20.73
2023-03-11T09:43:46.819Z,13.18
2023-03-11T09:46:28.521Z,5.70
2023-03-11T09:49:00.801Z,10.60
2023-03-11T09:51:29.987Z,8.00
2023-03-11T09:54:00.651Z,18.17
2023-03-11T09:56:32.556Z,1.95
2023-03-11T09:59:04.906Z,6.45
2023-03-11T10:01:34.484Z,6.95
2023-03-11T10:04:04.765Z,8.98
2023-03-11T10:06:38.111Z,6.75
2023-03-11T10:09:09.817Z,14.77
2023-03-11T10:11:56.876Z,7.15
2023-03-11T10:14:40.726Z,6.72
2023-03-11T10:17:13.025Z,8.27
2023-03-11T10:19:43.728Z,8.20
2023-03-11T10:22:14.908Z,9.65
2023-03-11T10:24:53.107Z,9.82
2023-03-11T10:27:26.452Z,8.85
2023-03-11T10:29:56.901Z,5.00
2023-03-11T10:32:29.386Z,14.43
2023-03-11T10:34:59.299Z,20.10
2023-03-11T10:37:47.917Z,21.85
2023-03-11T10:40:28.852Z,5.20
2023-03-11T10:42:59.391Z,5.50
2023-03-11T10:45:26.845Z,12.18
2023-03-11T10:47:56.840Z,15.45
2023-03-11T10:50:24.244Z,9.18
2023-03-11T10:53:11.631Z,14.95
2023-03-11T10:55:52.632Z,7.35
2023-03-11T10:58:22.345Z,9.95
2023-03-11T11:01:02.438Z,11.60
2023-03-11T11:03:30.330Z,6.47
2023-03-11T11:08:29.712Z,9.00
2023-03-11T11:10:58.443Z,8.95
2023-03-11T11:13:30.053Z,8.20
2023-03-11T11:16:01.390Z,6.90
2023-03-11T11:18:30.364Z,9.73
2023-03-11T11:21:11.550Z,9.73
2023-03-11T11:23:41.501Z,13.73
2023-03-11T11:26:15.493Z,13.70
2023-03-11T11:28:44.296Z,5.47
2023-03-11T11:31:21.279Z,9.38
2023-03-11T11:33:52.472Z,9.13
2023-03-11T11:36:26.178Z,4.03
2023-03-11T11:38:54.755Z,7.10
2023-03-11T11:41:23.356Z,11.48
2023-03-11T11:43:59.361Z,4.68
2023-03-11T11:46:36.065Z,7.90
2023-03-11T11:49:07.187Z,6.17
2023-03-11T11:51:36.058Z,32.40
2023-03-11T11:54:09.138Z,12.45
2023-03-11T11:56:37.532Z,5.47
2023-03-11T11:59:10.658Z,12.75
2023-03-11T12:01:41.367Z,4.43
2023-03-11T12:04:18.465Z,6.07
2023-03-11T12:06:51.665Z,11.93
2023-03-11T12:09:24.121Z,8.10
2023-03-11T12:11:58.048Z,4.18
2023-03-11T12:14:31.813Z,12.65
2023-03-11T12:17:04.211Z,9.50
2023-03-11T12:19:37.599Z,5.63
2023-03-11T12:22:26.136Z,8.10
2023-03-11T12:24:59.209Z,4.63
2023-03-11T12:27:28.667Z,10.98
2023-03-11T12:29:58.891Z,8.75
2023-03-11T12:32:30.731Z,6.25
2023-03-11T12:35:02.784Z,4.68
2023-03-11T12:37:30.312Z,17.73
2023-03-11T12:39:57.780Z,6.00
2023-03-11T12:42:28.289Z,4.35
2023-03-11T12:45:16.991Z,7.85
2023-03-11T12:47:46.789Z,6.05
2023-03-11T12:50:37.645Z,8.93
2023-03-11T12:53:05.154Z,4.55
2023-03-11T12:55:40.274Z,10.68
2023-03-11T12:58:42.037Z,6.75
2023-03-11T13:01:30.441Z,8.93
2023-03-11T13:04:05.824Z,6.10
2023-03-11T13:06:56.613Z,10.38
2023-03-11T13:09:24.662Z,6.15
2023-03-11T13:11:52.294Z,13.52
2023-03-11T13:14:35.006Z,7.97
2023-03-11T13:17:25.808Z,3.67
2023-03-11T13:19:56.695Z,6.97
2023-03-11T13:22:57.485Z,9.25
2023-03-11T13:25:33.268Z,8.05
2023-03-11T13:28:07.985Z,7.47
2023-03-11T13:30:49.521Z,7.65
2023-03-11T13:33:25.242Z,5.65
2023-03-11T13:36:08.501Z,8.15
2023-03-11T13:38:48.318Z,8.98
2023-03-11T13:41:17.836Z,5.60
2023-03-11T13:43:50.503Z,5.93
2023-03-11T13:46:27.404Z,9.95
2023-03-11T13:48:57.825Z,8.90
2023-03-11T13:51:28.598Z,12.80
2023-03-11T13:54:04.800Z,5.30
2023-03-11T13:56:33.710Z,4.25
2023-03-11T13:59:18.558Z,6.82
2023-03-11T14:01:52.614Z,6.43
2023-03-11T14:04:21.859Z,3.78
2023-03-11T14:06:49.940Z,4.70
2023-03-11T14:09:23.731Z,4.35
2023-03-11T14:11:53.475Z,6.85
2023-03-11T14:14:29.056Z,6.55
2023-03-11T14:16:57.175Z,5.95
2023-03-11T14:19:24.511Z,6.45
2023-03-11T14:21:52.458Z,5.15
2023-03-11T14:24:24.164Z,4.78
2023-03-11T14:26:55.055Z,2.78
2023-03-11T14:29:25.332Z,7.10
2023-03-11T14:31:52.899Z,6.45
2023-03-11T14:34:23.648Z,6.88
2023-03-11T14:36:54.193Z,5.10
2023-03-11T14:39:27.607Z,4.57
2023-03-11T14:41:56.572Z,6.65
2023-03-11T14:44:25.304Z,5.95
2023-03-11T14:47:03.354Z,14.82
2023-03-11T14:49:32.195Z,8.90
2023-03-11T14:52:05.455Z,2.67
2023-03-11T14:54:35.217Z,5.85
2023-03-11T14:57:05.216Z,7.43
2023-03-11T14:59:33.537Z,6.75
2023-03-11T15:02:05.772Z,9.60
2023-03-11T15:04:35.919Z,3.25
2023-03-11T15:07:10.005Z,4.32
2023-03-11T15:09:41.471Z,3.58
2023-03-11T15:12:29.518Z,4.53
2023-03-11T15:14:58.570Z,5.18
2023-03-11T15:17:37.052Z,7.75
2023-03-11T15:20:23.398Z,9.85
2023-03-11T15:22:57.638Z,7.47
2023-03-11T15:25:25.165Z,7.22
2023-03-11T15:27:52.518Z,12.60
2023-03-11T15:30:22.944Z,10.43
2023-03-11T15:32:50.724Z,8.38
2023-03-11T15:35:21.743Z,4.35
2023-03-11T15:37:50.135Z,6.20
2023-03-11T15:40:26.132Z,13.70
2023-03-11T15:43:19.094Z,6.53
2023-03-11T15:45:48.973Z,6.00
2023-03-11T15:48:17.721Z,8.80
2023-03-11T15:50:53.218Z,3.83
2023-03-11T15:53:21.688Z,10.85
2023-03-11T15:55:53.539Z,15.60
2023-03-11T15:58:21.603Z,5.35
2023-03-11T16:00:51.526Z,10.10
2023-03-11T16:03:19.366Z,7.40
2023-03-11T16:05:46.893Z,9.10
2023-03-11T16:08:14.310Z,8.00
2023-03-11T16:10:42.400Z,15.75
2023-03-11T16:15:37.917Z,4.55
2023-03-11T16:18:07.445Z,11.10
2023-03-11T16:20:37.880Z,4.10
2023-03-11T16:23:06.760Z,9.32
2023-03-11T16:25:42.827Z,7.93
2023-03-11T16:28:12.258Z,9.38
2023-03-11T16:30:39.753Z,5.57
2023-03-11T16:33:08.544Z,5.65
2023-03-11T16:35:36.205Z,6.63
2023-03-11T16:38:03.568Z,14.27
2023-03-11T16:40:32.593Z,17.70
2023-03-11T16:43:01.320Z,7.18
2023-03-11T16:45:30.156Z,7.55
2023-03-11T16:47:57.759Z,5.68
2023-03-11T16:50:27.351Z,8.07
2023-03-11T16:52:55.765Z,8.27
2023-03-11T16:55:23.397Z,5.88
2023-03-11T16:57:50.763Z,4.88
2023-03-11T17:00:19.084Z,9.23
2023-03-11T17:02:46.590Z,10.20
2023-03-11T17:05:17.024Z,12.77
2023-03-11T17:07:45.778Z,11.68
2023-03-11T17:10:13.452Z,6.18
2023-03-11T17:12:41.260Z,3.67
2023-03-11T17:15:11.274Z,16.13
2023-03-11T17:17:38.865Z,5.55
2023-03-11T17:20:07.644Z,4.72
2023-03-11T17:22:35.150Z,9.75
2023-03-11T17:25:04.489Z,9.93
2023-03-11T17:27:33.690Z,4.53
2023-03-11T17:30:01.549Z,5.00
2023-03-11T17:34:56.264Z,9.88
2023-03-11T17:37:23.853Z,9.93
2023-03-11T17:39:53.326Z,15.18
2023-03-11T17:42:22.231Z,7.22
2023-03-11T17:44:52.050Z,5.18
2023-03-11T17:47:20.437Z,7.53
2023-03-11T17:49:48.336Z,9.23
2023-03-11T17:52:15.779Z,19.05
2023-03-11T17:54:45.205Z,5.75
2023-03-11T17:57:12.583Z,13.10
2023-03-11T17:59:41.302Z,7.28
2023-03-11T18:02:13.330Z,3.33
2023-03-11T18:04:45.914Z,10.30
2023-03-11T18:07:13.336Z,13.23
2023-03-11T18:09:40.883Z,11.32
2023-03-11T18:12:08.337Z,13.02
2023-03-11T18:14:36.554Z,8.10
2023-03-11T18:17:05.469Z,11.77
2023-03-11T18:19:32.890Z,12.52
2023-03-11T18:22:00.246Z,18.13
2023-03-11T18:24:27.615Z,21.75
2023-03-11T18:26:56.400Z,23.13
2023-03-11T18:29:25.049Z,15.85
2023-03-11T18:31:54.689Z,29.13
2023-03-11T18:34:23.455Z,52.03
2023-03-11T18:37:02.570Z,44.97
2023-03-11T18:39:30.265Z,46.83
2023-03-11T18:41:57.648Z,36.40
2023-03-11T18:44:25.058Z,26.52
2023-03-11T18:46:52.457Z,22.70
2023-03-11T18:49:19.851Z,25.95
2023-03-11T18:51:48.586Z,27.98
2023-03-11T18:54:17.733Z,22.70
2023-03-11T18:56:45.235Z,22.40
2023-03-11T18:59:14.301Z,21.25
2023-03-11T19:01:41.718Z,18.25
2023-03-11T19:04:10.349Z,19.33
2023-03-11T19:06:37.902Z,23.23
2023-03-11T19:09:06.718Z,30.85
2023-03-11T19:11:34.146Z,29.42
2023-03-11T19:14:01.527Z,36.85
2023-03-11T19:16:29.059Z,37.92
2023-03-11T19:18:56.775Z,37.58
2023-03-11T19:21:25.788Z,34.95
2023-03-11T19:24:01.160Z,40.53
2023-03-11T19:26:44.350Z,42.60
2023-03-11T19:29:15.447Z,43.42
2023-03-11T19:31:45.011Z,39.15
2023-03-11T19:34:14.168Z,35.75
2023-03-11T19:36:43.406Z,52.17
2023-03-11T19:39:13.165Z,38.67
2023-03-11T19:41:53.379Z,40.42
2023-03-11T19:44:21.025Z,38.13
2023-03-11T19:46:48.604Z,34.72
2023-03-11T19:49:16.345Z,29.50
2023-03-11T19:51:49.978Z,33.70
2023-03-11T19:54:18.084Z,28.98
2023-03-11T19:56:48.458Z,34.97
2023-03-11T19:59:16.095Z,33.42
2023-03-11T20:01:43.556Z,33.85
2023-03-11T20:04:11.204Z,31.17
2023-03-11T20:09:06.781Z,34.60
2023-03-11T20:11:34.480Z,38.88
2023-03-11T20:14:03.376Z,33.75
2023-03-11T20:16:30.743Z,32.38
2023-03-11T20:18:58.324Z,33.83
2023-03-11T20:21:25.705Z,32.38
2023-03-11T20:23:54.533Z,33.00
2023-03-11T20:26:21.954Z,47.70
2023-03-11T20:28:49.496Z,35.08
2023-03-11T20:31:19.780Z,33.47
2023-03-11T20:33:50.202Z,37.75
2023-03-11T20:36:18.895Z,26.50
2023-03-11T20:38:47.662Z,23.45
2023-03-11T20:41:15.308Z,33.58
2023-03-11T20:43:42.733Z,26.95
2023-03-11T20:46:10.910Z,30.85
2023-03-11T20:48:40.076Z,26.45
2023-03-11T20:51:08.590Z,24.42
2023-03-11T20:53:38.868Z,30.08
2023-03-11T20:56:07.438Z,27.95
2023-03-11T20:58:38.264Z,32.90
2023-03-11T21:01:10.997Z,27.40
2023-03-11T21:03:39.858Z,31.60
2023-03-11T21:06:15.263Z,34.13
2023-03-11T21:08:42.947Z,29.13
2023-03-11T21:11:11.527Z,34.65
2023-03-11T21:13:38.970Z,32.38
2023-03-11T21:16:07.125Z,34.63
2023-03-11T21:18:34.680Z,28.73
2023-03-11T21:21:04.244Z,29.00
2023-03-11T21:23:31.628Z,34.78
2023-03-11T21:26:00.045Z,44.03
2023-03-11T21:28:27.747Z,36.42
2023-03-11T21:30:58.656Z,32.15
2023-03-11T21:33:26.225Z,38.67
2023-03-11T21:35:57.427Z,43.47
2023-03-11T21:38:26.673Z,39.50
2023-03-11T21:40:54.615Z,51.55
2023-03-11T21:45:51.522Z,36.65
2023-03-11T21:48:21.964Z,39.63
2023-03-11T21:50:51.106Z,33.42
2023-03-11T21:53:19.152Z,30.63
2023-03-11T21:55:48.385Z,31.20
2023-03-11T21:58:15.957Z,30.20
2023-03-11T22:00:44.630Z,29.25
2023-03-11T22:03:12.278Z,26.85
2023-03-11T22:05:40.102Z,29.70
2023-03-11T22:08:12.601Z,24.02
2023-03-11T22:10:40.124Z,25.10
2023-03-11T22:13:17.518Z,25.52
2023-03-11T22:15:46.037Z,26.05
2023-03-11T22:18:14.727Z,20.30
2023-03-11T22:20:42.607Z,22.73
2023-03-11T22:23:10.738Z,26.30
2023-03-11T22:25:38.416Z,26.38
2023-03-11T22:28:12.977Z,24.95
2023-03-11T22:30:40.469Z,23.80
2023-03-11T22:33:08.296Z,28.83
2023-03-11T22:38:03.495Z,25.60
2023-03-11T22:40:31.043Z,21.48
2023-03-11T22:42:58.455Z,25.65
2023-03-11T22:45:27.232Z,27.98
2023-03-11T22:47:54.824Z,23.85
2023-03-11T22:50:22.210Z,26.02
2023-03-11T22:52:49.636Z,24.45
2023-03-11T22:55:23.423Z,21.45
2023-03-11T22:57:53.121Z,17.98
2023-03-11T23:00:21.975Z,28.90
2023-03-11T23:02:54.480Z,27.88
2023-03-11T23:05:22.208Z,26.98
2023-03-11T23:07:50.003Z,14.88
2023-03-11T23:12:47.919Z,17.85
2023-03-11T23:15:16.665Z,13.27
2023-03-11T23:17:46.779Z,16.98
2023-03-11T23:20:16.210Z,13.38
2023-03-11T23:22:43.997Z,18.52
2023-03-11T23:25:12.192Z,15.02
2023-03-11T23:27:42.563Z,10.32
2023-03-11T23:30:15.653Z,17.48
2023-03-11T23:32:43.591Z,15.98
2023-03-11T23:35:11.460Z,16.85
2023-03-11T23:40:11.339Z,17.52
2023-03-11T23:42:38.861Z,11.00
2023-03-11T23:45:06.752Z,26.88
2023-03-11T23:50:05.511Z,13.93
2023-03-11T23:52:33.831Z,17.83
2023-03-11T23:55:03.345Z,12.57
2023-03-11T23:57:33.753Z,19.55
